createdAt,value
2022-08-20T00:02:55.774Z,1.30
2022-08-20T00:06:57.752Z,1.05
2022-08-20T00:11:01.103Z,0.80
2022-08-20T00:15:06.901Z,1.33
2022-08-20T00:19:09.786Z,0.77
2022-08-20T00:23:12.841Z,0.95
2022-08-20T00:27:14.759Z,0.52
2022-08-20T00:31:19.688Z,0.60
2022-08-20T00:35:26.244Z,3.03
2022-08-20T00:39:28.214Z,1.05
2022-08-20T00:43:30.099Z,0.73
2022-08-20T00:47:32.040Z,1.75
2022-08-20T00:51:59.234Z,0.90
2022-08-20T00:56:01.328Z,1.77
2022-08-20T01:00:11.325Z,0.77
2022-08-20T01:04:13.318Z,0.70
2022-08-20T01:08:18.249Z,0.80
2022-08-20T01:12:20.828Z,0.95
2022-08-20T01:16:26.708Z,1.08
2022-08-20T01:20:36.063Z,1.25
2022-08-20T01:28:58.927Z,0.60
2022-08-20T01:33:02.380Z,0.70
2022-08-20T01:37:04.314Z,0.77
2022-08-20T01:41:30.566Z,1.23
2022-08-20T01:45:33.937Z,0.50
2022-08-20T01:49:36.274Z,0.45
2022-08-20T01:53:42.630Z,0.50
2022-08-20T01:57:44.977Z,0.55
2022-08-20T02:01:47.729Z,0.63
2022-08-20T02:05:49.788Z,2.95
2022-08-20T02:09:51.861Z,4.32
2022-08-20T02:13:54.479Z,0.80
2022-08-20T02:17:57.909Z,0.70
2022-08-20T02:22:03.687Z,0.65
2022-08-20T02:26:07.538Z,0.75
2022-08-20T02:30:27.635Z,0.95
2022-08-20T02:34:30.424Z,1.27
2022-08-20T02:38:34.984Z,0.85
2022-08-20T02:42:39.385Z,1.23
2022-08-20T02:46:41.299Z,0.90
2022-08-20T02:50:44.591Z,1.67
2022-08-20T02:54:46.683Z,1.02
2022-08-20T02:58:48.617Z,1.40
2022-08-20T03:02:51.305Z,1.25
2022-08-20T03:06:53.280Z,1.10
2022-08-20T03:10:56.104Z,1.83
2022-08-20T03:14:57.982Z,1.50
2022-08-20T03:18:59.937Z,3.00
2022-08-20T03:23:01.915Z,1.40
2022-08-20T03:27:04.478Z,1.60
2022-08-20T03:31:07.331Z,1.90
2022-08-20T03:35:11.891Z,1.08
2022-08-20T03:39:13.838Z,1.40
2022-08-20T03:43:16.124Z,1.52
2022-08-20T03:47:18.356Z,1.75
2022-08-20T03:51:20.238Z,1.50
2022-08-20T03:55:24.127Z,2.00
2022-08-20T03:59:26.166Z,1.67
2022-08-20T04:03:28.800Z,1.60
2022-08-20T04:07:30.721Z,1.83
2022-08-20T04:11:33.615Z,2.13
2022-08-20T04:15:37.281Z,1.60
2022-08-20T04:19:40.245Z,1.52
2022-08-20T04:23:42.549Z,1.55
2022-08-20T04:27:45.841Z,2.80
2022-08-20T04:31:48.399Z,2.10
2022-08-20T04:35:50.845Z,2.58
2022-08-20T04:40:11.435Z,2.40
2022-08-20T04:44:13.761Z,2.55
2022-08-20T04:48:15.819Z,3.08
2022-08-20T04:52:17.766Z,3.42
2022-08-20T04:56:23.746Z,3.60
2022-08-20T05:00:26.111Z,2.67
2022-08-20T05:04:28.020Z,2.90
2022-08-20T05:08:30.209Z,3.63
2022-08-20T05:12:32.276Z,4.07
2022-08-20T05:16:38.042Z,3.10
2022-08-20T05:20:42.636Z,4.03
2022-08-20T05:24:45.010Z,3.50
2022-08-20T05:28:57.338Z,3.33
2022-08-20T05:33:00.831Z,4.13
2022-08-20T05:37:04.489Z,3.38
2022-08-20T05:41:10.714Z,3.80
2022-08-20T05:45:12.702Z,3.75
2022-08-20T05:49:20.529Z,4.25
2022-08-20T05:53:24.922Z,4.40
2022-08-20T05:57:26.906Z,4.03
2022-08-20T06:01:29.026Z,3.75
2022-08-20T06:05:31.046Z,3.78
2022-08-20T06:09:33.982Z,3.95
2022-08-20T06:13:35.951Z,4.35
2022-08-20T06:17:39.389Z,3.50
2022-08-20T06:21:41.668Z,3.40
2022-08-20T06:25:43.706Z,3.70
2022-08-20T06:29:45.874Z,3.60
2022-08-20T06:33:47.889Z,3.13
2022-08-20T06:37:50.588Z,4.85
2022-08-20T06:41:52.570Z,4.07
2022-08-20T06:45:57.802Z,4.30
2022-08-20T06:49:59.818Z,3.65
2022-08-20T06:54:01.762Z,4.47
2022-08-20T06:58:06.380Z,4.18
2022-08-20T07:02:08.499Z,3.50
2022-08-20T07:06:11.236Z,3.30
2022-08-20T07:10:14.880Z,3.08
2022-08-20T07:14:18.433Z,3.35
2022-08-20T07:18:28.320Z,3.85
2022-08-20T07:22:30.861Z,3.65
2022-08-20T07:26:33.247Z,3.88
2022-08-20T07:30:55.791Z,3.55
2022-08-20T07:34:59.512Z,3.85
2022-08-20T07:39:05.831Z,3.67
2022-08-20T07:43:09.895Z,3.95
2022-08-20T07:47:13.626Z,4.20
2022-08-20T07:51:18.200Z,4.25
2022-08-20T07:55:22.034Z,3.65
2022-08-20T07:59:24.107Z,3.97
2022-08-20T08:03:39.356Z,4.38
2022-08-20T08:07:48.914Z,4.38
2022-08-20T08:11:51.073Z,4.38
2022-08-20T08:15:59.480Z,4.07
2022-08-20T08:20:01.533Z,3.53
2022-08-20T08:24:03.919Z,4.95
2022-08-20T08:28:06.039Z,4.20
2022-08-20T08:32:07.999Z,3.55
2022-08-20T08:36:13.244Z,3.33
2022-08-20T08:40:15.363Z,7.28
2022-08-20T08:44:30.628Z,3.83
2022-08-20T08:48:43.359Z,4.43
2022-08-20T08:52:48.246Z,4.22
2022-08-20T08:56:51.253Z,4.60
2022-08-20T09:00:56.557Z,3.88
2022-08-20T09:05:02.127Z,3.53
2022-08-20T09:09:06.603Z,3.80
2022-08-20T09:13:09.026Z,3.42
2022-08-20T09:17:10.965Z,3.75
2022-08-20T09:21:14.538Z,3.67
2022-08-20T09:25:17.070Z,3.67
2022-08-20T09:29:18.954Z,3.88
2022-08-20T09:33:21.059Z,3.58
2022-08-20T09:37:25.970Z,2.95
2022-08-20T09:41:28.152Z,2.50
2022-08-20T09:45:30.064Z,3.97
2022-08-20T09:49:32.320Z,4.22
2022-08-20T09:53:35.095Z,3.67
2022-08-20T09:57:37.037Z,3.47
2022-08-20T10:01:39.703Z,2.78
2022-08-20T10:05:41.656Z,1.88
2022-08-20T10:09:43.926Z,2.92
2022-08-20T10:13:46.121Z,4.43
2022-08-20T10:17:48.107Z,3.50
2022-08-20T10:21:54.347Z,3.08
2022-08-20T10:25:56.219Z,2.88
2022-08-20T10:29:58.218Z,2.95
2022-08-20T10:34:00.112Z,3.10
2022-08-20T10:38:02.015Z,2.75
2022-08-20T10:42:04.038Z,2.70
2022-08-20T10:46:06.298Z,2.90
2022-08-20T10:50:11.818Z,2.40
2022-08-20T10:54:13.759Z,2.40
2022-08-20T10:58:15.863Z,3.03
2022-08-20T11:02:19.328Z,2.55
2022-08-20T11:06:21.268Z,2.80
2022-08-20T11:10:25.109Z,1.90
2022-08-20T11:14:27.014Z,3.75
2022-08-20T11:18:29.781Z,2.42
2022-08-20T11:22:31.904Z,2.75
2022-08-20T11:26:33.976Z,2.70
2022-08-20T11:30:37.120Z,2.88
2022-08-20T11:34:39.136Z,2.78
2022-08-20T11:38:41.083Z,2.75
2022-08-20T11:42:58.626Z,2.67
2022-08-20T11:47:07.156Z,3.08
2022-08-20T11:51:09.061Z,3.17
2022-08-20T11:55:14.678Z,2.72
2022-08-20T11:59:17.476Z,2.10
2022-08-20T12:03:19.425Z,3.15
2022-08-20T12:07:24.312Z,2.88
2022-08-20T12:11:26.649Z,2.80
2022-08-20T12:15:28.606Z,2.72
2022-08-20T12:19:30.654Z,2.60
2022-08-20T12:23:32.627Z,1.80
2022-08-20T12:27:37.004Z,2.30
2022-08-20T12:31:38.921Z,2.13
2022-08-20T12:35:41.361Z,2.03
2022-08-20T12:39:46.971Z,2.70
2022-08-20T12:43:48.900Z,2.17
2022-08-20T12:47:51.021Z,2.38
2022-08-20T12:51:52.920Z,2.47
2022-08-20T12:55:54.864Z,1.88
2022-08-20T12:59:59.487Z,2.17
2022-08-20T13:04:01.503Z,1.70
2022-08-20T13:08:08.520Z,2.50
2022-08-20T13:12:11.341Z,2.08
2022-08-20T13:16:13.535Z,4.40
2022-08-20T13:20:17.502Z,3.20
2022-08-20T13:24:19.850Z,1.77
2022-08-20T13:28:21.815Z,1.52
2022-08-20T13:32:24.264Z,1.50
2022-08-20T13:36:26.278Z,2.40
2022-08-20T13:40:28.380Z,2.22
2022-08-20T13:44:33.269Z,1.70
2022-08-20T13:48:35.609Z,1.35
2022-08-20T13:52:38.750Z,1.42
2022-08-20T13:56:40.756Z,1.70
2022-08-20T14:00:42.791Z,3.50
2022-08-20T14:04:45.424Z,2.53
2022-08-20T14:08:47.411Z,1.60
2022-08-20T14:12:50.229Z,2.03
2022-08-20T14:16:52.150Z,2.03
2022-08-20T14:20:54.127Z,3.42
2022-08-20T14:24:56.768Z,2.28
2022-08-20T14:28:58.717Z,2.70
2022-08-20T14:33:00.640Z,3.33
2022-08-20T14:37:13.828Z,4.05
2022-08-20T14:41:16.274Z,4.15
2022-08-20T14:45:19.068Z,3.50
2022-08-20T14:49:21.155Z,3.70
2022-08-20T14:53:23.162Z,3.22
2022-08-20T14:57:25.081Z,3.20
2022-08-20T15:01:27.088Z,3.28
2022-08-20T15:05:29.833Z,4.13
2022-08-20T15:09:34.440Z,3.00
2022-08-20T15:13:36.350Z,4.25
2022-08-20T15:17:38.742Z,3.15
2022-08-20T15:21:45.086Z,3.42
2022-08-20T15:25:47.788Z,3.83
2022-08-20T15:29:50.664Z,3.42
2022-08-20T15:33:52.643Z,3.13
2022-08-20T15:37:56.301Z,3.35
2022-08-20T15:41:58.190Z,4.90
2022-08-20T15:46:01.196Z,3.70
2022-08-20T15:50:09.366Z,4.22
2022-08-20T15:54:27.621Z,4.28
2022-08-20T15:58:39.684Z,4.38
2022-08-20T16:03:00.119Z,4.18
2022-08-20T16:07:10.009Z,4.90
2022-08-20T16:11:46.366Z,4.00
2022-08-20T16:15:49.728Z,4.00
2022-08-20T16:19:52.023Z,3.88
2022-08-20T16:23:55.559Z,3.45
2022-08-20T16:28:25.725Z,2.85
2022-08-20T16:32:40.762Z,2.60
2022-08-20T16:37:03.308Z,2.60
2022-08-20T16:41:13.631Z,3.35
2022-08-20T16:45:26.082Z,2.35
2022-08-20T16:49:29.905Z,2.53
2022-08-20T16:53:32.337Z,3.47
2022-08-20T16:57:34.235Z,2.78
2022-08-20T17:01:36.183Z,3.20
2022-08-20T17:05:37.989Z,3.28
2022-08-20T17:09:43.819Z,2.95
2022-08-20T17:13:48.927Z,5.28
2022-08-20T17:17:50.873Z,3.08
2022-08-20T17:21:52.823Z,2.22
2022-08-20T17:26:05.097Z,4.10
2022-08-20T17:30:10.569Z,2.60
2022-08-20T17:34:31.690Z,4.30
2022-08-20T17:38:53.954Z,2.65
2022-08-20T17:42:58.680Z,3.10
2022-08-20T17:47:06.439Z,3.15
2022-08-20T17:51:34.500Z,4.72
2022-08-20T17:55:37.930Z,5.32
2022-08-20T18:00:02.435Z,4.72
2022-08-20T18:04:04.625Z,5.07
2022-08-20T18:08:37.060Z,4.15
2022-08-20T18:13:00.611Z,4.75
2022-08-20T18:17:24.287Z,4.05
2022-08-20T18:21:55.159Z,3.75
2022-08-20T18:26:09.876Z,3.10
2022-08-20T18:30:19.105Z,3.53
2022-08-20T18:34:35.274Z,3.42
2022-08-20T18:38:42.127Z,3.08
2022-08-20T18:42:44.724Z,2.60
2022-08-20T18:47:02.102Z,3.78
2022-08-20T18:51:09.921Z,3.73
2022-08-20T18:55:28.725Z,3.28
2022-08-20T18:59:34.407Z,3.58
2022-08-20T19:03:36.263Z,3.42
2022-08-20T19:07:48.269Z,4.38
2022-08-20T19:12:25.246Z,3.88
2022-08-20T19:16:41.910Z,3.60
2022-08-20T19:20:55.874Z,3.70
2022-08-20T19:24:58.831Z,4.15
2022-08-20T19:29:10.678Z,4.40
2022-08-20T19:33:13.389Z,4.10
2022-08-20T19:37:34.860Z,3.70
2022-08-20T19:41:47.679Z,4.78
2022-08-20T19:45:54.461Z,4.10
2022-08-20T19:50:27.813Z,4.28
2022-08-20T19:54:30.772Z,4.50
2022-08-20T19:58:34.084Z,4.20
2022-08-20T20:02:36.141Z,4.35
2022-08-20T20:06:44.504Z,3.85
2022-08-20T20:10:57.195Z,4.25
2022-08-20T20:15:00.653Z,4.38
2022-08-20T20:19:25.198Z,4.90
2022-08-20T20:23:45.611Z,4.50
2022-08-20T20:27:56.482Z,5.07
2022-08-20T20:32:00.243Z,4.53
2022-08-20T20:36:42.328Z,3.53
2022-08-20T20:40:52.012Z,3.15
2022-08-20T20:44:54.536Z,2.55
2022-08-20T20:49:12.357Z,3.63
2022-08-20T20:53:24.622Z,3.97
2022-08-20T20:57:39.039Z,2.50
2022-08-20T21:01:49.504Z,1.70
2022-08-20T21:05:54.068Z,1.77
2022-08-20T21:09:58.267Z,1.67
2022-08-20T21:14:00.179Z,1.60
2022-08-20T21:18:04.751Z,2.28
2022-08-20T21:22:06.955Z,1.73
2022-08-20T21:26:11.552Z,1.27
2022-08-20T21:30:13.924Z,1.95
2022-08-20T21:34:16.435Z,1.52
2022-08-20T21:38:18.653Z,1.88
2022-08-20T21:42:29.192Z,2.05
2022-08-20T21:46:31.633Z,1.42
2022-08-20T21:50:33.520Z,1.45
2022-08-20T21:54:36.624Z,1.00
2022-08-20T21:58:39.388Z,1.50
2022-08-20T22:02:41.289Z,1.35
2022-08-20T22:06:43.642Z,1.30
2022-08-20T22:10:45.769Z,1.30
2022-08-20T22:14:48.198Z,1.25
2022-08-20T22:18:50.823Z,1.30
2022-08-20T22:22:52.779Z,1.30
2022-08-20T22:26:54.770Z,1.38
2022-08-20T22:30:57.178Z,1.27
2022-08-20T22:34:59.177Z,1.20
2022-08-20T22:39:01.295Z,1.30
2022-08-20T22:43:03.295Z,1.05
2022-08-20T22:47:07.927Z,1.45
2022-08-20T22:51:15.956Z,1.40
2022-08-20T22:55:18.593Z,1.48
2022-08-20T22:59:22.859Z,1.40
2022-08-20T23:03:40.238Z,1.40
2022-08-20T23:07:42.603Z,1.40
2022-08-20T23:11:44.525Z,1.20
2022-08-20T23:15:46.558Z,1.75
2022-08-20T23:19:49.890Z,1.65
2022-08-20T23:23:51.951Z,1.60
2022-08-20T23:27:55.991Z,1.45
2022-08-20T23:32:05.706Z,2.25
2022-08-20T23:36:10.530Z,1.65
2022-08-20T23:40:16.116Z,2.22
2022-08-20T23:44:26.025Z,6.53
2022-08-20T23:48:28.958Z,3.58
2022-08-20T23:52:30.934Z,7.70
2022-08-20T23:56:32.957Z,6.10
